createdAt,value
2023-02-04T00:18:20.401Z,100252.59
2023-02-04T00:20:50.596Z,100252.59
2023-02-04T00:23:18.396Z,100252.38
2023-02-04T00:25:46.561Z,100248.09
2023-02-04T00:28:14.818Z,100254.22
2023-02-04T00:30:43.118Z,100255.47
2023-02-04T00:33:11.059Z,100248.38
2023-02-04T00:35:39.491Z,100252.31
2023-02-04T00:55:49.440Z,100232.06
2023-02-04T00:58:18.063Z,100232.06
2023-02-04T01:00:46.073Z,100236.19
2023-02-04T01:03:14.182Z,100239.00
2023-02-04T01:05:42.502Z,100231.28
2023-02-04T01:08:12.062Z,100228.81
2023-02-04T01:10:39.933Z,100229.78
2023-02-04T01:33:45.021Z,100220.44
2023-02-04T01:36:13.706Z,100220.44
2023-02-04T01:38:41.580Z,100215.38
2023-02-04T01:41:09.432Z,100209.28
2023-02-04T01:43:37.616Z,100205.38
2023-02-04T01:46:06.248Z,100207.34
2023-02-04T01:48:34.525Z,100204.03
2023-02-04T01:51:20.853Z,100180.69
2023-02-04T02:12:03.539Z,100193.50
2023-02-04T02:14:32.141Z,100193.50
2023-02-04T02:17:00.637Z,100189.75
2023-02-04T02:19:34.656Z,100183.69
2023-02-04T02:22:03.663Z,100199.34
2023-02-04T02:24:34.493Z,100198.22
2023-02-04T02:27:09.122Z,100194.56
2023-02-04T02:47:44.576Z,100204.38
2023-02-04T02:50:17.636Z,100204.38
2023-02-04T02:52:45.587Z,100202.59
2023-02-04T02:55:19.658Z,100209.38
2023-02-04T02:57:49.361Z,100214.66
2023-02-04T03:00:21.121Z,100208.72
2023-02-04T03:03:00.265Z,100206.59
2023-02-04T03:05:32.924Z,100196.41
2023-02-04T03:23:21.410Z,100192.56
2023-02-04T03:25:50.260Z,100192.56
2023-02-04T03:28:18.468Z,100191.81
2023-02-04T03:30:56.046Z,100197.91
2023-02-04T03:33:28.179Z,100195.78
2023-02-04T03:35:56.047Z,100204.50
2023-02-04T03:38:24.447Z,100207.94
2023-02-04T04:00:59.987Z,100201.78
2023-02-04T04:03:28.873Z,100201.78
2023-02-04T04:05:56.859Z,100202.84
2023-02-04T04:08:25.489Z,100203.16
2023-02-04T04:10:53.766Z,100202.69
2023-02-04T04:13:22.054Z,100186.72
2023-02-04T04:15:49.956Z,100199.91
2023-02-04T04:18:23.170Z,100192.00
2023-02-04T04:38:47.381Z,100147.00
2023-02-04T04:41:16.075Z,100147.00
2023-02-04T04:43:43.927Z,100121.94
2023-02-04T04:46:11.708Z,100149.06
2023-02-04T04:48:39.926Z,100148.25
2023-02-04T04:51:08.029Z,100144.28
2023-02-04T04:53:35.921Z,100141.34
2023-02-04T05:11:34.494Z,100155.22
2023-02-04T05:14:03.080Z,100155.22
2023-02-04T05:16:31.031Z,100157.16
2023-02-04T05:18:59.081Z,100152.50
2023-02-04T05:21:27.254Z,100165.50
2023-02-04T05:23:55.160Z,100155.44
2023-02-04T05:26:30.314Z,100176.19
2023-02-04T05:46:58.287Z,100102.72
2023-02-04T05:49:26.841Z,100102.72
2023-02-04T05:51:54.744Z,100092.53
2023-02-04T05:54:22.699Z,100101.19
2023-02-04T05:56:51.925Z,100104.16
2023-02-04T05:59:19.770Z,100119.59
2023-02-04T06:01:47.648Z,100123.88
2023-02-04T06:04:16.732Z,100118.81
2023-02-04T06:06:46.631Z,100143.13
2023-02-04T06:26:41.159Z,100188.03
2023-02-04T06:29:09.804Z,100188.03
2023-02-04T06:31:39.259Z,100191.19
2023-02-04T06:34:07.237Z,100173.88
2023-02-04T06:36:35.410Z,100152.31
2023-02-04T06:39:03.501Z,100166.84
2023-02-04T06:41:31.400Z,100176.41
2023-02-04T07:04:37.703Z,100191.81
2023-02-04T07:07:06.399Z,100191.81
2023-02-04T07:09:34.258Z,100197.41
2023-02-04T07:12:02.381Z,100186.69
2023-02-04T07:14:30.658Z,100189.22
2023-02-04T07:16:58.774Z,100206.75
2023-02-04T07:19:26.756Z,100189.94
2023-02-04T07:39:59.337Z,100267.56
2023-02-04T07:42:28.420Z,100267.56
2023-02-04T07:44:59.926Z,100264.09
2023-02-04T07:47:28.087Z,100268.66
2023-02-04T07:49:59.020Z,100258.22
2023-02-04T07:52:27.066Z,100280.81
2023-02-04T07:54:55.312Z,100272.41
2023-02-04T07:57:23.295Z,100295.44
2023-02-04T08:20:23.086Z,100407.69
2023-02-04T08:22:51.684Z,100407.69
2023-02-04T08:25:19.841Z,100412.97
2023-02-04T08:27:47.950Z,100414.78
2023-02-04T08:30:16.360Z,100410.06
2023-02-04T08:32:44.301Z,100425.97
2023-02-04T08:35:12.870Z,100429.38
2023-02-04T08:37:41.518Z,100429.31
2023-02-04T08:58:05.276Z,100517.72
2023-02-04T09:00:38.036Z,100517.72
2023-02-04T09:03:08.571Z,100512.88
2023-02-04T09:05:36.711Z,100507.81
2023-02-04T09:08:04.884Z,100513.50
2023-02-04T09:10:33.071Z,100525.81
2023-02-04T09:13:01.679Z,100520.72
2023-02-04T09:35:47.894Z,100594.91
2023-02-04T09:38:16.678Z,100594.91
2023-02-04T09:40:52.437Z,100596.72
2023-02-04T09:43:27.886Z,100602.38
2023-02-04T09:45:57.626Z,100615.91
2023-02-04T09:48:26.408Z,100646.34
2023-02-04T09:51:15.123Z,100626.47
2023-02-04T09:53:43.508Z,100669.66
2023-02-04T10:14:49.900Z,100680.47
2023-02-04T10:17:22.604Z,100680.47
2023-02-04T10:19:50.562Z,100685.78
2023-02-04T10:22:21.421Z,100706.25
